Погода Большая Лукана неделю

Пензенская область, Россия

25 - 31 мая
  • 25мая
    Сегодня
    +7°
    +22°
    Ясно и безоблачно
    ВремяПогодаТемператураВлажностьДавлениеВетер, м/сВероятность осадков
    00:00Практически безоблачно+11°C45 %758 мм1.1 м/с2 %
    03:00Ясно и безоблачно+9°C48 %758 мм1.0 м/с2 %
    06:00Ясно и безоблачно+10°C59 %758 мм2.2 м/с2 %
    09:00Практически безоблачно+17°C38 %758 мм2.7 м/с2 %
    12:00Ясно и безоблачно+19°C33 %757 мм2.9 м/с2 %
    15:00Ясно и безоблачно+21°C32 %755 мм3.5 м/с2 %
    18:00Ясно и безоблачно+21°C39 %754 мм3.0 м/с2 %
    21:00Ясно и безоблачно+13°C63 %753 мм2.4 м/с2 %
  • 26мая
    Воскресенье
    +9°
    +25°
    Практически безоблачно
    ВремяПогодаТемператураВлажностьДавлениеВетер, м/сВероятность осадков
    00:00Ясно и безоблачно+9°C71 %753 мм2.3 м/с2 %
    03:00Ясно и безоблачно+8°C74 %752 мм2.2 м/с2 %
    06:00Ясно и безоблачно+12°C66 %752 мм3.2 м/с2 %
    09:00Ясно и безоблачно+19°C50 %752 мм3.3 м/с2 %
    12:00Ясно и безоблачно+23°C37 %752 мм3.9 м/с2 %
    15:00Практически безоблачно+24°C34 %751 мм3.3 м/с5 %
    18:00Облачно с прояснениями+20°C58 %750 мм4.4 м/с7 %
    21:00Практически безоблачно+15°C82 %751 мм2.3 м/с5 %
  • 27мая
    Понедельник
    +7°
    +20°
    Ясно и безоблачно
    ВремяПогодаТемператураВлажностьДавлениеВетер, м/сВероятность осадков
    00:00Ясно и безоблачно+12°C79 %752 мм3.3 м/с2 %
    03:00Ясно и безоблачно+10°C78 %753 мм3.4 м/с2 %
    06:00Ясно и безоблачно+11°C63 %754 мм3.5 м/с2 %
    09:00Ясно и безоблачно+16°C43 %755 мм4.1 м/с2 %
    12:00Ясно и безоблачно+18°C33 %755 мм3.7 м/с2 %
    15:00Ясно и безоблачно+19°C31 %754 мм3.0 м/с2 %
    18:00Ясно и безоблачно+19°C34 %754 мм2.5 м/с2 %
    21:00Ясно и безоблачно+12°C61 %754 мм2.3 м/с2 %
  • 28мая
    Вторник
    +9°
    +23°
    Ясно и безоблачно
    ВремяПогодаТемператураВлажностьДавлениеВетер, м/сВероятность осадков
    00:00Ясно и безоблачно+9°C57 %754 мм2.3 м/с2 %
    03:00Ясно и безоблачно+8°C66 %754 мм2.4 м/с2 %
    06:00Ясно и безоблачно+10°C66 %754 мм2.6 м/с2 %
    09:00Ясно и безоблачно+17°C43 %754 мм1.8 м/с2 %
    12:00Ясно и безоблачно+20°C35 %753 мм2.0 м/с2 %
    15:00Ясно и безоблачно+21°C32 %752 мм1.9 м/с2 %
    18:00Ясно и безоблачно+22°C35 %751 мм1.3 м/с2 %
    21:00Ясно и безоблачно+15°C59 %750 мм2.0 м/с2 %
  • 29мая
    Среда
    +11°
    +25°
    Ясно и безоблачно
    ВремяПогодаТемператураВлажностьДавлениеВетер, м/сВероятность осадков
    00:00Ясно и безоблачно+11°C66 %750 мм2.6 м/с2 %
    03:00Ясно и безоблачно+10°C66 %749 мм2.6 м/с2 %
    06:00Ясно и безоблачно+13°C60 %749 мм2.3 м/с2 %
    09:00Ясно и безоблачно+20°C38 %749 мм1.9 м/с2 %
    12:00Ясно и безоблачно+23°C33 %749 мм1.6 м/с3 %
    15:00Ясно и безоблачно+24°C32 %748 мм1.6 м/с2 %
    18:00Ясно и безоблачно+24°C35 %747 мм1.4 м/с2 %
    21:00Ясно и безоблачно+17°C51 %747 мм2.4 м/с2 %
Мы используем cookies
Соглашаюсь